createdAt,value
2022-12-06T00:00:11.907Z,86.90
2022-12-06T00:03:36.908Z,87.00
2022-12-06T00:07:00.672Z,87.10
2022-12-06T00:10:25.201Z,87.20
2022-12-06T00:13:49.552Z,87.30
2022-12-06T00:17:14.602Z,87.50
2022-12-06T00:20:38.632Z,87.30
2022-12-06T00:24:05.128Z,87.10
2022-12-06T00:27:29.215Z,87.20
2022-12-06T00:30:53.022Z,87.20
2022-12-06T00:34:18.189Z,87.30
2022-12-06T00:37:41.840Z,87.10
2022-12-06T00:41:07.396Z,87.30
2022-12-06T00:44:31.059Z,87.30
2022-12-06T00:47:54.644Z,87.20
2022-12-06T00:51:21.344Z,87.30
2022-12-06T00:54:44.964Z,87.20
2022-12-06T00:58:08.588Z,87.40
2022-12-06T01:01:35.889Z,87.60
2022-12-06T01:04:59.705Z,87.10
2022-12-06T01:08:24.759Z,87.40
2022-12-06T01:11:48.442Z,87.50
2022-12-06T01:15:12.357Z,87.60
2022-12-06T01:18:36.024Z,87.80
2022-12-06T01:21:59.631Z,87.80
2022-12-06T01:25:26.278Z,87.70
2022-12-06T01:28:50.569Z,87.80
2022-12-06T01:32:14.428Z,87.40
2022-12-06T01:35:41.194Z,87.60
2022-12-06T01:39:07.006Z,87.60
2022-12-06T01:42:32.331Z,87.70
2022-12-06T01:45:56.343Z,87.90
2022-12-06T01:49:27.418Z,88.10
2022-12-06T01:52:56.968Z,88.30
2022-12-06T01:56:21.664Z,87.80
2022-12-06T01:59:47.185Z,87.80
2022-12-06T02:03:17.059Z,87.70
2022-12-06T02:06:41.917Z,87.90
2022-12-06T02:10:06.792Z,87.80
2022-12-06T02:13:32.595Z,87.60
2022-12-06T02:17:11.984Z,87.70
2022-12-06T02:20:42.586Z,88.50
2022-12-06T02:24:43.980Z,88.10
2022-12-06T02:28:28.446Z,88.00
2022-12-06T02:31:59.309Z,87.80
2022-12-06T02:35:32.561Z,87.80
2022-12-06T02:39:00.662Z,87.80
2022-12-06T02:42:28.136Z,87.90
2022-12-06T02:45:56.171Z,88.10
2022-12-06T02:49:24.213Z,87.90
2022-12-06T02:52:51.746Z,88.10
2022-12-06T02:56:17.747Z,87.90
2022-12-06T02:59:51.041Z,88.00
2022-12-06T03:03:51.916Z,87.80
2022-12-06T03:07:35.541Z,87.60
2022-12-06T03:11:03.669Z,87.70
2022-12-06T03:14:30.250Z,87.70
2022-12-06T03:17:59.421Z,88.40
2022-12-06T03:21:27.704Z,87.80
2022-12-06T03:24:53.908Z,87.60
2022-12-06T03:28:20.086Z,87.60
2022-12-06T03:31:46.610Z,87.70
2022-12-06T03:35:12.969Z,87.40
2022-12-06T03:38:51.337Z,87.40
2022-12-06T03:42:17.098Z,87.50
2022-12-06T03:45:48.046Z,87.80
2022-12-06T03:49:17.519Z,87.60
2022-12-06T03:52:42.229Z,87.80
2022-12-06T03:56:07.531Z,87.80
2022-12-06T03:59:34.073Z,88.00
2022-12-06T04:02:58.129Z,88.10
2022-12-06T04:06:21.780Z,88.20
2022-12-06T04:10:02.320Z,89.00
2022-12-06T04:13:28.509Z,88.30
2022-12-06T04:17:10.991Z,87.90
2022-12-06T04:20:48.888Z,87.80
2022-12-06T04:24:12.784Z,88.00
2022-12-06T04:27:54.243Z,88.00
2022-12-06T04:31:36.170Z,88.20
2022-12-06T04:35:18.362Z,88.20
2022-12-06T04:38:42.701Z,88.20
2022-12-06T04:42:24.164Z,88.20
2022-12-06T04:45:47.801Z,88.40
2022-12-06T04:49:11.468Z,88.40
2022-12-06T04:52:36.623Z,88.30
2022-12-06T04:56:00.954Z,88.40
2022-12-06T04:59:25.256Z,88.40
2022-12-06T05:02:48.926Z,88.60
2022-12-06T05:06:12.594Z,88.70
2022-12-06T05:09:37.741Z,89.30
2022-12-06T05:13:02.237Z,88.90
2022-12-06T05:16:26.137Z,89.20
2022-12-06T05:19:49.865Z,89.60
2022-12-06T05:23:14.073Z,89.80
2022-12-06T05:26:39.198Z,89.90
2022-12-06T05:30:02.871Z,89.90
2022-12-06T05:33:27.903Z,90.20
2022-12-06T05:36:51.595Z,90.10
2022-12-06T05:40:15.308Z,90.10
2022-12-06T05:43:40.322Z,90.00
2022-12-06T05:47:12.594Z,90.10
2022-12-06T05:50:36.615Z,90.10
2022-12-06T05:54:02.909Z,90.10
2022-12-06T05:57:26.561Z,90.40
2022-12-06T06:00:52.028Z,90.20
2022-12-06T06:04:16.507Z,90.20
2022-12-06T06:07:40.343Z,90.30
2022-12-06T06:11:04.268Z,90.40
2022-12-06T06:14:28.250Z,90.40
2022-12-06T06:17:53.453Z,90.40
2022-12-06T06:21:17.121Z,90.40
2022-12-06T06:24:42.960Z,90.50
2022-12-06T06:28:06.734Z,90.50
2022-12-06T06:31:30.418Z,90.50
2022-12-06T06:34:55.435Z,90.60
2022-12-06T06:38:19.219Z,90.50
2022-12-06T06:41:42.833Z,90.80
2022-12-06T06:45:07.845Z,90.70
2022-12-06T06:48:33.593Z,90.70
2022-12-06T06:51:58.673Z,90.70
2022-12-06T06:55:22.368Z,90.80
2022-12-06T06:58:46.008Z,90.60
2022-12-06T07:02:12.803Z,90.60
2022-12-06T07:05:36.709Z,90.60
2022-12-06T07:09:02.145Z,90.50
2022-12-06T07:12:25.843Z,90.60
2022-12-06T07:15:49.889Z,90.50
2022-12-06T07:19:13.532Z,90.50
2022-12-06T07:22:37.377Z,90.40
2022-12-06T07:26:04.260Z,90.40
2022-12-06T07:29:29.419Z,90.40
2022-12-06T07:32:53.081Z,90.50
2022-12-06T07:36:17.199Z,90.50
2022-12-06T07:39:40.796Z,90.50
2022-12-06T07:43:19.652Z,90.50
2022-12-06T07:46:44.101Z,90.40
2022-12-06T07:50:17.649Z,90.40
2022-12-06T07:53:41.974Z,90.40
2022-12-06T07:57:05.633Z,90.30
2022-12-06T08:00:33.835Z,90.50
2022-12-06T08:03:59.352Z,90.60
2022-12-06T08:07:24.249Z,90.70
2022-12-06T08:10:47.989Z,90.60
2022-12-06T08:14:13.110Z,90.60
2022-12-06T08:17:38.272Z,90.60
2022-12-06T08:21:02.279Z,90.60
2022-12-06T08:24:25.895Z,90.50
2022-12-06T08:27:49.751Z,90.40
2022-12-06T08:31:16.582Z,90.30
2022-12-06T08:34:42.827Z,90.40
2022-12-06T08:38:06.762Z,90.50
2022-12-06T08:41:48.285Z,90.40
2022-12-06T08:45:12.289Z,90.40
2022-12-06T08:48:42.623Z,90.30
2022-12-06T08:52:08.111Z,90.80
2022-12-06T08:55:31.813Z,90.50
2022-12-06T08:58:56.059Z,90.40
2022-12-06T09:02:19.660Z,90.30
2022-12-06T09:05:43.434Z,90.50
2022-12-06T09:09:09.927Z,90.40
2022-12-06T09:12:33.685Z,90.40
2022-12-06T09:15:57.933Z,90.40
2022-12-06T09:19:22.325Z,90.40
2022-12-06T09:22:46.005Z,90.40
2022-12-06T09:26:10.960Z,90.40
2022-12-06T09:29:40.365Z,90.30
2022-12-06T09:33:04.579Z,90.20
2022-12-06T09:36:29.946Z,90.30
2022-12-06T09:39:58.587Z,90.30
2022-12-06T09:43:38.466Z,90.20
2022-12-06T09:47:18.120Z,90.10
2022-12-06T09:50:49.270Z,90.00
2022-12-06T09:54:27.200Z,89.50
2022-12-06T09:57:57.058Z,89.20
2022-12-06T10:01:30.325Z,89.20
2022-12-06T10:05:14.205Z,89.10
2022-12-06T10:09:00.073Z,89.40
2022-12-06T10:12:34.652Z,88.70
2022-12-06T10:16:10.075Z,88.10
2022-12-06T10:19:50.349Z,88.40
2022-12-06T10:23:28.645Z,88.30
2022-12-06T10:26:54.370Z,88.70
2022-12-06T10:30:18.805Z,88.60
2022-12-06T10:33:53.481Z,88.40
2022-12-06T10:37:32.383Z,88.20
2022-12-06T10:41:06.091Z,88.00
2022-12-06T10:44:35.020Z,87.80
2022-12-06T10:48:01.943Z,88.20
2022-12-06T10:51:35.548Z,87.80
2022-12-06T10:55:10.424Z,87.90
2022-12-06T10:58:39.945Z,87.40
2022-12-06T11:02:22.740Z,87.50
2022-12-06T11:05:51.175Z,88.10
2022-12-06T11:09:21.897Z,87.20
2022-12-06T11:12:47.247Z,87.80
2022-12-06T11:16:15.283Z,87.80
2022-12-06T11:19:40.873Z,87.90
2022-12-06T11:23:11.979Z,88.20
2022-12-06T11:26:41.230Z,87.70
2022-12-06T11:30:20.008Z,87.60
2022-12-06T11:33:44.279Z,87.80
2022-12-06T11:37:11.285Z,87.90
2022-12-06T11:40:38.116Z,88.00
2022-12-06T11:44:02.176Z,88.40
2022-12-06T11:47:27.433Z,88.10
2022-12-06T11:50:53.816Z,88.10
2022-12-06T11:54:23.578Z,88.20
2022-12-06T11:57:52.997Z,87.90
2022-12-06T12:01:16.751Z,87.50
2022-12-06T12:04:43.140Z,87.70
2022-12-06T12:08:08.780Z,87.70
2022-12-06T12:11:35.277Z,87.30
2022-12-06T12:15:00.032Z,87.30
2022-12-06T12:18:27.236Z,87.40
2022-12-06T12:21:54.420Z,87.50
2022-12-06T12:25:27.546Z,87.60
2022-12-06T12:29:05.150Z,87.80
2022-12-06T12:32:28.808Z,87.80
2022-12-06T12:35:56.039Z,87.80
2022-12-06T12:39:33.660Z,87.40
2022-12-06T12:42:59.866Z,87.90
2022-12-06T12:46:25.006Z,87.50
2022-12-06T12:50:02.270Z,87.50
2022-12-06T12:53:30.581Z,87.30
2022-12-06T12:56:56.641Z,87.80
2022-12-06T13:00:22.807Z,87.50
2022-12-06T13:03:51.824Z,87.40
2022-12-06T13:07:22.844Z,87.70
2022-12-06T13:10:49.447Z,87.70
2022-12-06T13:14:20.157Z,87.80
2022-12-06T13:17:46.268Z,87.80
2022-12-06T13:21:18.166Z,88.80
2022-12-06T13:24:45.898Z,88.20
2022-12-06T13:28:17.887Z,88.20
2022-12-06T13:31:43.267Z,88.30
2022-12-06T13:35:19.130Z,88.20
2022-12-06T13:38:43.989Z,88.40
2022-12-06T13:42:23.448Z,87.80
2022-12-06T13:45:50.825Z,88.10
2022-12-06T13:49:26.752Z,88.00
2022-12-06T13:53:03.445Z,87.80
2022-12-06T13:56:31.748Z,87.40
2022-12-06T13:59:58.797Z,87.60
2022-12-06T14:03:40.491Z,87.10
2022-12-06T14:10:32.823Z,87.40
2022-12-06T14:14:08.995Z,87.50
2022-12-06T14:21:31.252Z,86.90
2022-12-06T14:25:02.466Z,87.00
2022-12-06T14:28:37.579Z,86.40
2022-12-06T14:32:01.356Z,86.60
2022-12-06T14:35:27.130Z,86.80
2022-12-06T14:39:00.554Z,86.60
2022-12-06T14:42:43.282Z,86.60
2022-12-06T14:46:11.168Z,86.70
2022-12-06T14:49:54.371Z,86.90
2022-12-06T14:53:30.032Z,86.40
2022-12-06T14:56:54.184Z,86.40
2022-12-06T15:00:27.076Z,86.20
2022-12-06T15:03:59.175Z,85.90
2022-12-06T15:07:38.606Z,86.30
2022-12-06T15:11:05.012Z,85.50
2022-12-06T15:14:30.692Z,85.80
2022-12-06T15:17:55.804Z,85.10
2022-12-06T15:21:19.492Z,84.30
2022-12-06T15:24:45.655Z,83.90
2022-12-06T15:28:09.275Z,83.90
2022-12-06T15:31:33.669Z,83.90
2022-12-06T15:34:58.564Z,83.30
2022-12-06T15:38:22.493Z,82.50
2022-12-06T15:41:46.553Z,82.00
2022-12-06T15:45:15.928Z,82.00
2022-12-06T15:48:40.215Z,82.30
2022-12-06T15:52:05.510Z,82.60
2022-12-06T15:55:29.253Z,83.40
2022-12-06T15:58:52.831Z,84.10
2022-12-06T16:02:18.450Z,84.60
2022-12-06T16:05:42.877Z,85.40
2022-12-06T16:09:08.170Z,86.30
2022-12-06T16:12:52.105Z,86.60
2022-12-06T16:16:16.455Z,86.90
2022-12-06T16:19:57.451Z,87.30
2022-12-06T16:24:11.995Z,87.60
2022-12-06T16:27:25.573Z,87.80
2022-12-06T16:30:49.041Z,87.90
2022-12-06T16:34:12.617Z,87.90
2022-12-06T16:37:36.433Z,88.00
2022-12-06T16:41:08.077Z,87.80
2022-12-06T16:44:33.145Z,87.80
2022-12-06T16:47:56.693Z,87.80
2022-12-06T16:51:20.411Z,88.00
2022-12-06T16:54:44.275Z,88.70
2022-12-06T16:58:08.179Z,88.90
2022-12-06T17:01:38.015Z,90.00
2022-12-06T17:05:06.269Z,89.50
2022-12-06T17:08:30.289Z,89.70
2022-12-06T17:12:06.722Z,89.90
2022-12-06T17:15:30.587Z,90.00
2022-12-06T17:18:55.469Z,90.00
2022-12-06T17:22:19.690Z,90.00
2022-12-06T17:25:43.247Z,90.10
2022-12-06T17:29:07.443Z,90.10
2022-12-06T17:32:31.122Z,90.10
2022-12-06T17:35:55.968Z,90.10
2022-12-06T17:39:21.291Z,90.20
2022-12-06T17:43:02.732Z,90.20
2022-12-06T17:46:26.386Z,90.30
2022-12-06T17:49:50.106Z,90.20
2022-12-06T17:53:15.062Z,90.60
2022-12-06T17:56:40.419Z,90.20
2022-12-06T18:00:05.346Z,90.20
2022-12-06T18:03:30.759Z,90.10
2022-12-06T18:06:58.045Z,90.10
2022-12-06T18:10:25.156Z,90.50
2022-12-06T18:13:49.043Z,90.00
2022-12-06T18:17:18.757Z,89.70
2022-12-06T18:20:47.355Z,89.90
2022-12-06T18:24:21.334Z,90.10
2022-12-06T18:27:48.738Z,90.20
2022-12-06T18:31:13.432Z,90.30
2022-12-06T18:34:37.228Z,90.30
2022-12-06T18:38:00.827Z,90.40
2022-12-06T18:41:25.503Z,90.40
2022-12-06T18:44:53.669Z,90.40
2022-12-06T18:48:21.530Z,90.50
2022-12-06T18:51:45.253Z,90.40
2022-12-06T18:55:09.608Z,90.40
2022-12-06T18:58:33.273Z,90.40
2022-12-06T19:01:58.723Z,90.30
2022-12-06T19:05:46.237Z,90.50
2022-12-06T19:09:09.251Z,90.10
2022-12-06T19:12:32.853Z,90.20
2022-12-06T19:16:02.257Z,90.00
2022-12-06T19:19:28.011Z,90.10
2022-12-06T19:22:51.586Z,90.00
2022-12-06T19:26:15.430Z,89.70
2022-12-06T19:29:38.968Z,89.60
2022-12-06T19:33:02.676Z,89.60
2022-12-06T19:36:29.527Z,89.60
2022-12-06T19:39:55.441Z,89.60
2022-12-06T19:44:02.727Z,89.50
2022-12-06T19:47:26.337Z,89.50
2022-12-06T19:50:50.533Z,89.30
2022-12-06T19:54:18.128Z,89.20
2022-12-06T19:57:45.388Z,89.10
2022-12-06T20:01:10.473Z,89.10
2022-12-06T20:04:36.943Z,89.40
2022-12-06T20:08:02.882Z,89.60
2022-12-06T20:11:48.317Z,89.50
2022-12-06T20:15:13.678Z,89.70
2022-12-06T20:18:43.179Z,89.80
2022-12-06T20:22:14.256Z,90.00
2022-12-06T20:25:40.873Z,90.20
2022-12-06T20:29:11.277Z,90.00
2022-12-06T20:32:37.064Z,89.70
2022-12-06T20:36:05.143Z,89.70
2022-12-06T20:39:35.058Z,89.90
2022-12-06T20:43:01.177Z,90.00
2022-12-06T20:46:32.265Z,90.10
2022-12-06T20:49:59.191Z,90.30
2022-12-06T20:53:23.213Z,90.30
2022-12-06T20:56:53.658Z,90.30
2022-12-06T21:00:19.174Z,90.50
2022-12-06T21:03:44.210Z,90.50
2022-12-06T21:07:07.904Z,90.50
2022-12-06T21:10:31.540Z,90.70
2022-12-06T21:13:57.204Z,90.80
2022-12-06T21:17:21.692Z,90.90
2022-12-06T21:20:49.293Z,90.90
2022-12-06T21:24:22.984Z,91.10
2022-12-06T21:27:46.587Z,91.10
2022-12-06T21:31:12.818Z,91.10
2022-12-06T21:34:45.849Z,91.10
2022-12-06T21:38:11.397Z,91.10
2022-12-06T21:41:35.101Z,91.20
2022-12-06T21:44:58.618Z,91.10
2022-12-06T21:48:22.141Z,91.20
2022-12-06T21:51:45.658Z,91.30
2022-12-06T21:55:11.386Z,91.30
2022-12-06T21:58:35.353Z,91.30
2022-12-06T22:02:01.308Z,91.40
2022-12-06T22:05:25.208Z,91.40
2022-12-06T22:08:50.106Z,91.40
2022-12-06T22:12:15.777Z,91.40
2022-12-06T22:15:39.338Z,91.30
2022-12-06T22:19:03.357Z,91.10
2022-12-06T22:22:26.916Z,91.20
2022-12-06T22:25:50.475Z,91.30
2022-12-06T22:29:15.905Z,91.20
2022-12-06T22:32:39.490Z,91.10
2022-12-06T22:36:03.371Z,91.10
2022-12-06T22:39:26.974Z,91.10
2022-12-06T22:42:50.512Z,91.00
2022-12-06T22:46:17.551Z,91.00
2022-12-06T22:49:41.292Z,91.00
2022-12-06T22:53:04.906Z,91.00
2022-12-06T22:56:30.208Z,91.00
2022-12-06T22:59:53.931Z,91.10
2022-12-06T23:03:18.941Z,91.10
2022-12-06T23:06:42.753Z,91.30
2022-12-06T23:10:08.031Z,91.30
2022-12-06T23:13:33.860Z,91.30
2022-12-06T23:16:57.700Z,91.30
2022-12-06T23:20:22.662Z,91.40
2022-12-06T23:23:48.417Z,91.60
2022-12-06T23:27:12.228Z,91.70
2022-12-06T23:30:35.692Z,91.80
2022-12-06T23:34:01.732Z,91.90
2022-12-06T23:37:26.596Z,91.90
2022-12-06T23:40:50.141Z,92.00
2022-12-06T23:44:14.830Z,91.90
2022-12-06T23:47:38.691Z,91.90
2022-12-06T23:51:03.793Z,91.90
2022-12-06T23:54:31.899Z,92.00
2022-12-06T23:57:56.011Z,92.00
